Time;durP1;ratioP1;P1;durP2;ratioP2;P2;SDS_P1;SDS_P2;PMS_P1;PMS_P2;Temp;Humidity;BMP_temperature;BMP_pressure;BME280_temperature;BME280_humidity;BME280_pressure;Samples;Min_cycle;Max_cycle;Signal;HPM_P1;HPM_P2
2023/04/25 00:01:41;;;;;;;;;;;6.90;99.90;;;;;;5066249;28;19994;-63
2023/04/25 00:04:08;;;;;;;;;;;6.90;99.90;;;;;;5087287;28;19977;-63
2023/04/25 00:06:39;;;;;;;;;;;6.80;99.90;;;;;;5069192;28;19947;-63
2023/04/25 00:09:11;;;;;;;;;;;6.80;99.90;;;;;;5086289;28;19990;-63
2023/04/25 00:11:38;;;;;;;;;;;6.80;99.90;;;;;;5091051;28;19924;-63
2023/04/25 00:14:09;;;;;;;;;;;6.80;99.90;;;;;;5085322;28;19931;-63
2023/04/25 00:16:43;;;;;;;;;;;6.80;99.90;;;;;;5089301;28;20388;-63
2023/04/25 00:19:15;;;;;;;;;;;6.70;99.90;;;;;;5063484;28;20523;-63
2023/04/25 00:21:47;;;;;;;;;;;6.70;99.90;;;;;;5079193;28;19928;-63
2023/04/25 00:24:19;;;;;;;;;;;6.70;99.90;;;;;;5081084;28;20388;-63
2023/04/25 00:26:51;;;;;;;;;;;6.70;99.90;;;;;;5067169;28;19986;-63
2023/04/25 00:29:22;;;;;;;;;;;6.80;99.90;;;;;;5063411;28;19924;-63
2023/04/25 00:31:49;;;;;;;;;;;6.80;99.90;;;;;;5085795;28;19928;-63
2023/04/25 00:34:21;;;;;;;;;;;6.80;99.90;;;;;;5085353;28;19924;-63
2023/04/25 00:36:53;;;;;;;;;;;6.80;99.90;;;;;;5069592;28;19931;-63
2023/04/25 00:39:24;;;;;;;;;;;6.90;99.90;;;;;;5068072;28;19928;-63
2023/04/25 00:41:56;;;;;;;;;;;6.90;99.90;;;;;;5084438;28;19928;-63
2023/04/25 00:44:29;;;;;;;;;;;6.90;99.90;;;;;;5076609;28;19959;-63
2023/04/25 00:47:01;;;;;;;;;;;7.00;99.90;;;;;;5079710;28;19931;-63
2023/04/25 00:49:33;;;;;;;;;;;6.90;99.90;;;;;;5068552;28;19981;-63
2023/04/25 00:52:00;;;;;;;;;;;7.00;99.90;;;;;;5082061;28;19928;-63
2023/04/25 00:54:32;;;;;;;;;;;7.00;99.90;;;;;;5065336;28;19974;-63
2023/04/25 00:57:03;;;;;;;;;;;6.90;99.90;;;;;;5066986;28;19975;-63
2023/04/25 00:59:36;;;;;;;;;;;6.90;99.90;;;;;;5085612;28;19963;-63
2023/04/25 01:02:02;;;;;;;;;;;7.00;99.90;;;;;;5062499;28;19928;-63
2023/04/25 01:04:34;;;;;;;;;;;7.00;99.90;;;;;;5067747;28;20336;-63
2023/04/25 01:07:06;;;;;;;;;;;7.00;99.90;;;;;;5049705;28;19932;-63
2023/04/25 01:09:37;;;;;;;;;;;7.00;99.90;;;;;;5057831;28;19974;-63
2023/04/25 01:12:09;;;;;;;;;;;7.00;99.90;;;;;;5084189;28;19931;-63
2023/04/25 01:14:41;;;;;;;;;;;7.00;99.90;;;;;;5063336;28;19931;-63
2023/04/25 01:17:13;;;;;;;;;;;7.00;99.90;;;;;;5063490;28;19982;-63
2023/04/25 01:19:47;;;;;;;;;;;7.00;99.90;;;;;;5082857;28;19931;-63
2023/04/25 01:22:19;;;;;;;;;;;6.90;99.90;;;;;;5064596;28;19990;-63
2023/04/25 01:24:50;;;;;;;;;;;6.90;99.90;;;;;;5070691;28;20410;-63
2023/04/25 01:27:22;;;;;;;;;;;6.90;99.90;;;;;;5063800;28;20562;-63
2023/04/25 01:29:55;;;;;;;;;;;6.90;99.90;;;;;;5062950;28;20456;-63
2023/04/25 01:32:23;;;;;;;;;;;6.90;99.90;;;;;;5064451;28;20019;-63
2023/04/25 01:34:54;;;;;;;;;;;6.90;99.90;;;;;;5077504;28;20377;-63
2023/04/25 01:37:22;;;;;;;;;;;6.80;99.90;;;;;;5064903;28;20399;-63
2023/04/25 01:39:53;;;;;;;;;;;6.80;99.90;;;;;;5080948;28;19928;-63
2023/04/25 01:42:25;;;;;;;;;;;6.90;99.90;;;;;;5051424;28;19982;-63
2023/04/25 01:44:52;;;;;;;;;;;6.80;99.90;;;;;;5065485;28;19978;-63
2023/04/25 01:47:23;;;;;;;;;;;6.80;99.90;;;;;;5041089;28;19924;-63
2023/04/25 01:49:55;;;;;;;;;;;6.90;99.90;;;;;;5053873;28;19935;-63
2023/04/25 01:52:27;;;;;;;;;;;6.90;99.90;;;;;;5060928;28;19936;-63
2023/04/25 01:55:00;;;;;;;;;;;6.90;99.90;;;;;;5069679;28;20284;-63
2023/04/25 01:57:34;;;;;;;;;;;6.90;99.90;;;;;;5067069;28;19934;-63
2023/04/25 02:00:06;;;;;;;;;;;6.90;99.90;;;;;;5061117;28;20463;-63
2023/04/25 02:02:38;;;;;;;;;;;6.90;99.90;;;;;;5079236;28;20014;-63
2023/04/25 02:05:20;;;;;;;;;;;7.00;99.90;;;;;;5064709;28;19987;-63
2023/04/25 02:07:52;;;;;;;;;;;7.10;99.90;;;;;;5045566;28;19928;-63
2023/04/25 02:10:25;;;;;;;;;;;7.10;99.90;;;;;;5044309;28;19934;-63
2023/04/25 02:13:29;;;;;;;;;;;7.10;99.90;;;;;;5060664;28;19929;-63
2023/04/25 02:16:15;;;;;;;;;;;7.10;99.90;;;;;;5077761;28;19924;-63
2023/04/25 02:18:42;;;;;;;;;;;7.20;99.90;;;;;;5058277;28;19932;-63
2023/04/25 02:21:14;;;;;;;;;;;7.20;99.90;;;;;;5059576;28;20424;-63
2023/04/25 02:23:42;;;;;;;;;;;7.20;99.90;;;;;;5059758;28;19928;-63
2023/04/25 02:26:11;;;;;;;;;;;7.20;99.90;;;;;;5062188;28;19932;-63
2023/04/25 02:28:42;;;;;;;;;;;7.10;99.90;;;;;;5079188;28;19935;-63
2023/04/25 02:31:14;;;;;;;;;;;7.20;99.90;;;;;;5048277;28;20010;-63
2023/04/25 02:33:47;;;;;;;;;;;7.20;99.90;;;;;;5064514;28;19928;-63
2023/04/25 02:36:19;;;;;;;;;;;7.20;99.90;;;;;;5063843;28;19924;-63
2023/04/25 02:38:50;;;;;;;;;;;7.20;99.90;;;;;;5067459;28;20358;-63
2023/04/25 02:41:22;;;;;;;;;;;7.20;99.90;;;;;;5066057;28;19940;-63
2023/04/25 02:43:54;;;;;;;;;;;7.20;99.90;;;;;;5079327;28;19925;-63
2023/04/25 02:46:26;;;;;;;;;;;7.10;99.90;;;;;;5056879;28;19928;-63
2023/04/25 02:48:59;;;;;;;;;;;7.10;99.90;;;;;;5062274;28;20023;-63
2023/04/25 02:51:30;;;;;;;;;;;7.10;99.90;;;;;;5082074;28;19928;-63
2023/04/25 02:54:02;;;;;;;;;;;7.00;99.90;;;;;;5049525;28;20023;-63
2023/04/25 02:56:40;;;;;;;;;;;7.00;99.90;;;;;;5049415;28;20011;-63
2023/04/25 02:59:17;;;;;;;;;;;7.00;99.90;;;;;;5061980;28;19931;-63
2023/04/25 03:01:49;;;;;;;;;;;7.00;99.90;;;;;;5082267;28;20458;-63
2023/04/25 03:04:23;;;;;;;;;;;6.90;99.90;;;;;;5066370;28;20324;-63
2023/04/25 03:06:55;;;;;;;;;;;6.90;99.90;;;;;;5076939;28;20284;-63
2023/04/25 03:09:27;;;;;;;;;;;6.90;99.90;;;;;;5045679;28;19929;-63
2023/04/25 03:11:58;;;;;;;;;;;6.80;99.90;;;;;;5063781;28;19932;-63
2023/04/25 03:14:32;;;;;;;;;;;6.70;99.90;;;;;;5065467;28;19928;-63
2023/04/25 03:17:04;;;;;;;;;;;6.70;99.90;;;;;;5069947;28;19925;-63
2023/04/25 03:19:36;;;;;;;;;;;6.70;99.90;;;;;;5051964;28;19949;-63
2023/04/25 03:22:08;;;;;;;;;;;6.70;99.90;;;;;;5066976;28;19924;-63
2023/04/25 03:24:40;;;;;;;;;;;6.70;99.90;;;;;;5062356;28;19924;-63
2023/04/25 03:27:13;;;;;;;;;;;6.70;99.90;;;;;;5082693;28;19931;-63
2023/04/25 03:29:45;;;;;;;;;;;6.70;99.90;;;;;;5079903;28;19924;-63
2023/04/25 03:32:16;;;;;;;;;;;6.80;99.90;;;;;;5063941;28;19931;-63
2023/04/25 03:34:48;;;;;;;;;;;6.70;99.90;;;;;;5066707;28;20370;-63
2023/04/25 03:37:20;;;;;;;;;;;6.70;99.90;;;;;;5068276;28;20343;-63
2023/04/25 03:39:51;;;;;;;;;;;6.70;99.90;;;;;;5084535;28;19982;-63
2023/04/25 03:42:29;;;;;;;;;;;6.70;99.90;;;;;;5064377;28;19929;-63
2023/04/25 03:45:01;;;;;;;;;;;6.70;99.90;;;;;;5054666;28;19932;-63
2023/04/25 03:47:33;;;;;;;;;;;6.70;99.90;;;;;;5063782;28;19928;-63
2023/04/25 03:50:01;;;;;;;;;;;6.80;99.90;;;;;;5061840;28;19932;-63
2023/04/25 03:52:33;;;;;;;;;;;6.70;99.90;;;;;;5064754;28;20011;-63
2023/04/25 03:55:04;;;;;;;;;;;6.70;99.90;;;;;;5061347;28;19924;-63
2023/04/25 03:57:36;;;;;;;;;;;6.70;99.90;;;;;;5066626;28;19928;-63
2023/04/25 04:00:09;;;;;;;;;;;6.70;99.90;;;;;;5083501;28;19932;-63
2023/04/25 04:02:41;;;;;;;;;;;6.70;99.90;;;;;;5083020;28;19931;-63
2023/04/25 04:05:12;;;;;;;;;;;6.70;99.90;;;;;;5083027;28;19931;-63
2023/04/25 04:07:50;;;;;;;;;;;6.80;99.90;;;;;;5069705;28;19959;-63
2023/04/25 04:10:23;;;;;;;;;;;6.70;99.90;;;;;;5064012;28;19963;-63
2023/04/25 04:12:54;;;;;;;;;;;6.70;99.90;;;;;;5060352;28;19924;-63
2023/04/25 04:15:26;;;;;;;;;;;6.70;99.90;;;;;;5048009;28;19932;-63
2023/04/25 04:17:54;;;;;;;;;;;6.70;99.90;;;;;;5064782;28;20005;-63
2023/04/25 04:20:26;;;;;;;;;;;6.60;99.90;;;;;;5060093;28;19925;-63
2023/04/25 04:22:58;;;;;;;;;;;6.60;99.90;;;;;;5069887;28;19928;-63
2023/04/25 04:25:29;;;;;;;;;;;6.60;99.90;;;;;;5067202;28;19978;-64
2023/04/25 04:28:10;;;;;;;;;;;6.50;99.90;;;;;;5064647;28;19971;-65
2023/04/25 04:30:57;;;;;;;;;;;6.50;99.90;;;;;;5065448;28;19971;-64
2023/04/25 04:33:24;;;;;;;;;;;6.40;99.90;;;;;;5062027;28;20293;-64
2023/04/25 04:36:00;;;;;;;;;;;6.40;99.90;;;;;;5059495;28;20010;-64
2023/04/25 04:38:32;;;;;;;;;;;6.40;99.90;;;;;;5062309;28;19928;-65
2023/04/25 04:41:05;;;;;;;;;;;6.30;99.90;;;;;;5062591;28;19971;-64
2023/04/25 04:43:55;;;;;;;;;;;6.30;99.90;;;;;;5065400;28;19924;-64
2023/04/25 04:46:41;;;;;;;;;;;6.30;99.90;;;;;;5056105;28;20483;-65
2023/04/25 04:49:39;;;;;;;;;;;6.20;99.90;;;;;;5057450;28;20030;-64
2023/04/25 04:52:25;;;;;;;;;;;6.20;99.90;;;;;;5082956;28;20355;-64
2023/04/25 04:55:22;;;;;;;;;;;6.20;99.90;;;;;;5066387;28;19928;-64
2023/04/25 04:58:08;;;;;;;;;;;6.20;99.90;;;;;;5062848;28;19950;-64
2023/04/25 05:01:02;;;;;;;;;;;6.30;99.90;;;;;;5060026;28;19924;-64
2023/04/25 05:03:52;;;;;;;;;;;6.30;99.90;;;;;;5080202;28;19936;-64
2023/04/25 05:06:40;;;;;;;;;;;6.30;99.90;;;;;;5080323;28;20015;-64
2023/04/25 05:09:25;;;;;;;;;;;6.20;99.90;;;;;;5064982;28;19925;-65
2023/04/25 05:12:09;;;;;;;;;;;6.20;99.90;;;;;;5067200;28;19924;-64
2023/04/25 05:14:57;;;;;;;;;;;6.20;99.90;;;;;;5067192;28;19958;-64
2023/04/25 05:17:39;;;;;;;;;;;6.20;99.90;;;;;;5077278;28;20230;-64
2023/04/25 05:20:18;;;;;;;;;;;6.20;99.90;;;;;;5079174;28;19928;-64
2023/04/25 05:23:13;;;;;;;;;;;6.20;99.90;;;;;;5062733;28;20014;-64
2023/04/25 05:26:01;;;;;;;;;;;6.20;99.90;;;;;;5063447;28;20067;-64
2023/04/25 05:28:44;;;;;;;;;;;6.20;99.90;;;;;;5064170;28;19990;-63
2023/04/25 05:31:31;;;;;;;;;;;6.30;99.90;;;;;;5070088;28;19964;-64
2023/04/25 05:34:12;;;;;;;;;;;6.30;99.90;;;;;;5065807;28;19925;-63
2023/04/25 05:36:51;;;;;;;;;;;6.40;99.90;;;;;;5064090;28;20400;-65
2023/04/25 05:39:24;;;;;;;;;;;6.40;99.90;;;;;;5063569;28;19932;-64
2023/04/25 05:41:55;;;;;;;;;;;6.50;99.90;;;;;;5084621;28;20382;-63
2023/04/25 05:44:45;;;;;;;;;;;6.50;99.90;;;;;;5075737;28;19931;-64
2023/04/25 05:47:30;;;;;;;;;;;6.40;99.90;;;;;;5052072;28;20443;-64
2023/04/25 05:50:17;;;;;;;;;;;6.50;99.90;;;;;;5062280;28;19928;-64
2023/04/25 05:53:00;;;;;;;;;;;6.50;99.90;;;;;;5055197;28;19933;-64
2023/04/25 05:55:37;;;;;;;;;;;6.50;99.90;;;;;;5065237;28;19934;-63
2023/04/25 05:58:21;;;;;;;;;;;6.50;99.90;;;;;;5080953;28;20301;-63
2023/04/25 06:00:54;;;;;;;;;;;6.60;99.90;;;;;;5079108;28;19951;-63
2023/04/25 06:03:26;;;;;;;;;;;6.70;99.90;;;;;;5057581;28;19924;-63
2023/04/25 06:05:58;;;;;;;;;;;6.70;99.90;;;;;;5059118;28;20282;-64
2023/04/25 06:08:29;;;;;;;;;;;6.80;99.90;;;;;;5044562;28;20407;-64
2023/04/25 06:11:02;;;;;;;;;;;6.90;99.90;;;;;;5044869;28;20331;-63
2023/04/25 06:13:34;;;;;;;;;;;6.90;99.90;;;;;;5059063;28;19946;-64
2023/04/25 06:16:07;;;;;;;;;;;7.00;99.90;;;;;;5070571;28;19939;-63
2023/04/25 06:18:39;;;;;;;;;;;7.00;99.90;;;;;;5052536;28;19925;-63
2023/04/25 06:21:10;;;;;;;;;;;7.00;99.90;;;;;;5083359;28;19928;-64
2023/04/25 06:23:37;;;;;;;;;;;7.00;99.90;;;;;;5062912;28;19925;-64
2023/04/25 06:26:11;;;;;;;;;;;7.10;99.90;;;;;;5059976;28;19978;-64
2023/04/25 06:28:45;;;;;;;;;;;7.10;99.90;;;;;;5060096;28;19974;-64
2023/04/25 06:31:16;;;;;;;;;;;7.10;99.90;;;;;;5055477;28;19924;-64
2023/04/25 06:33:49;;;;;;;;;;;7.10;99.90;;;;;;5066527;28;19932;-63
2023/04/25 06:36:16;;;;;;;;;;;7.10;99.90;;;;;;5062784;28;19924;-64
2023/04/25 06:38:52;;;;;;;;;;;7.00;99.90;;;;;;5056634;28;19933;-63
2023/04/25 06:41:19;;;;;;;;;;;7.10;99.90;;;;;;5070910;28;19924;-64
2023/04/25 06:43:51;;;;;;;;;;;7.00;99.90;;;;;;5083213;28;19924;-64
2023/04/25 06:46:27;;;;;;;;;;;7.10;99.90;;;;;;5059812;28;19928;-64
2023/04/25 06:48:57;;;;;;;;;;;7.00;99.90;;;;;;5065277;28;19960;-64
2023/04/25 06:51:24;;;;;;;;;;;7.10;99.90;;;;;;5062679;28;19928;-64
2023/04/25 06:53:56;;;;;;;;;;;7.10;99.90;;;;;;5043633;28;19931;-65
2023/04/25 06:56:35;;;;;;;;;;;7.10;99.90;;;;;;5068687;28;19924;-64
2023/04/25 06:59:07;;;;;;;;;;;7.00;99.90;;;;;;5065198;28;19970;-65
2023/04/25 07:01:40;;;;;;;;;;;7.10;99.90;;;;;;5073302;28;20015;-64
2023/04/25 07:04:19;;;;;;;;;;;7.10;99.90;;;;;;5068303;28;19924;-65
2023/04/25 07:06:54;;;;;;;;;;;7.20;99.90;;;;;;5066974;28;19955;-65
2023/04/25 07:09:35;;;;;;;;;;;7.10;99.90;;;;;;5065583;28;19931;-64
2023/04/25 07:12:07;;;;;;;;;;;7.20;99.90;;;;;;5064098;28;20362;-64
2023/04/25 07:14:39;;;;;;;;;;;7.30;99.90;;;;;;5061145;28;19925;-64
2023/04/25 07:17:11;;;;;;;;;;;7.50;99.90;;;;;;5059356;28;19928;-64
2023/04/25 07:19:43;;;;;;;;;;;7.70;99.90;;;;;;5058729;28;20297;-64
2023/04/25 07:22:16;;;;;;;;;;;7.90;99.90;;;;;;5068567;28;19928;-64
2023/04/25 07:24:48;;;;;;;;;;;8.10;99.90;;;;;;5069651;28;19947;-63
2023/04/25 07:27:23;;;;;;;;;;;8.20;99.90;;;;;;5065090;28;19924;-63
2023/04/25 07:30:01;;;;;;;;;;;8.40;99.90;;;;;;5051827;28;20095;-64
2023/04/25 07:32:32;;;;;;;;;;;8.50;99.90;;;;;;5064050;28;20360;-64
2023/04/25 07:35:04;;;;;;;;;;;8.50;99.90;;;;;;5061650;28;19940;-63
2023/04/25 07:37:31;;;;;;;;;;;8.50;99.90;;;;;;5077349;28;19931;-63
2023/04/25 07:40:12;;;;;;;;;;;8.40;99.90;;;;;;5057290;28;20414;-64
2023/04/25 07:42:48;;;;;;;;;;;8.50;99.90;;;;;;5056536;28;20038;-63
2023/04/25 07:45:20;;;;;;;;;;;8.60;99.90;;;;;;5063607;28;19935;-63
2023/04/25 07:47:53;;;;;;;;;;;8.70;99.90;;;;;;5054814;28;20027;-63
2023/04/25 07:50:25;;;;;;;;;;;8.80;99.90;;;;;;5068086;28;19932;-63
2023/04/25 07:52:57;;;;;;;;;;;8.70;99.90;;;;;;5066012;28;19924;-63
2023/04/25 07:55:39;;;;;;;;;;;8.70;99.90;;;;;;5061509;28;19944;-63
2023/04/25 07:58:15;;;;;;;;;;;8.70;99.90;;;;;;5060682;28;20315;-64
2023/04/25 08:00:44;;;;;;;;;;;8.90;99.90;;;;;;5059097;28;19932;-63
2023/04/25 08:03:42;;;;;;;;;;;9.00;99.90;;;;;;5056083;28;19990;-63
2023/04/25 08:06:20;;;;;;;;;;;9.20;99.90;;;;;;5053138;28;19925;-64
2023/04/25 08:09:04;;;;;;;;;;;9.40;99.90;;;;;;5065775;28;19928;-63
2023/04/25 08:11:39;;;;;;;;;;;9.60;99.90;;;;;;5042493;28;19925;-63
2023/04/25 08:14:14;;;;;;;;;;;9.70;99.90;;;;;;5067839;28;19932;-63
2023/04/25 08:16:47;;;;;;;;;;;9.70;99.90;;;;;;5063631;28;19925;-63
2023/04/25 08:19:19;;;;;;;;;;;9.80;99.90;;;;;;5063019;28;20388;-63
2023/04/25 08:21:51;;;;;;;;;;;9.80;99.90;;;;;;5062810;28;19925;-63
2023/04/25 08:24:30;;;;;;;;;;;9.80;99.90;;;;;;5057424;28;20007;-63
2023/04/25 08:27:02;;;;;;;;;;;9.80;99.90;;;;;;5057667;28;19924;-64
2023/04/25 08:29:30;;;;;;;;;;;9.80;99.90;;;;;;4990883;28;1829542;-63
2023/04/25 08:32:02;;;;;;;;;;;9.80;99.90;;;;;;5066437;28;19928;-63
2023/04/25 08:34:39;;;;;;;;;;;9.80;99.90;;;;;;5069093;28;19932;-63
2023/04/25 08:37:10;;;;;;;;;;;9.80;99.90;;;;;;5057941;28;20292;-63
2023/04/25 08:39:53;;;;;;;;;;;9.70;99.90;;;;;;5065381;28;19933;-64
2023/04/25 08:42:43;;;;;;;;;;;9.70;99.90;;;;;;5087010;28;19932;-63
2023/04/25 08:45:15;;;;;;;;;;;9.70;99.90;;;;;;5062266;28;20019;-63
2023/04/25 08:47:50;;;;;;;;;;;9.70;99.90;;;;;;5060083;28;20397;-63
2023/04/25 08:50:22;;;;;;;;;;;9.60;99.90;;;;;;5057788;28;19932;-64
2023/04/25 08:52:54;;;;;;;;;;;9.60;99.90;;;;;;5061391;28;19946;-63
2023/04/25 08:55:26;;;;;;;;;;;9.70;99.90;;;;;;5070649;28;20449;-63
2023/04/25 08:57:59;;;;;;;;;;;9.70;99.90;;;;;;5070773;28;20330;-63
2023/04/25 09:00:32;;;;;;;;;;;9.70;99.90;;;;;;5066419;28;19935;-63
2023/04/25 09:03:04;;;;;;;;;;;9.70;99.90;;;;;;5080385;28;19931;-63
2023/04/25 09:05:36;;;;;;;;;;;9.30;99.90;;;;;;5064229;28;19924;-63
2023/04/25 09:08:02;;;;;;;;;;;8.60;99.90;;;;;;5062100;28;20296;-64
2023/04/25 09:10:29;;;;;;;;;;;8.30;99.90;;;;;;5059198;28;19935;-64
2023/04/25 09:13:04;;;;;;;;;;;8.10;99.90;;;;;;5062941;28;19974;-64
2023/04/25 09:15:57;;;;;;;;;;;8.00;99.90;;;;;;5079230;28;19925;-64
2023/04/25 09:18:53;;;;;;;;;;;8.00;99.90;;;;;;5049082;28;19925;-64
2023/04/25 09:21:27;;;;;;;;;;;8.00;99.90;;;;;;5066937;28;19924;-64
2023/04/25 09:23:59;;;;;;;;;;;8.20;99.90;;;;;;5057221;28;19932;-65
2023/04/25 09:26:31;;;;;;;;;;;8.30;99.90;;;;;;5067352;28;19924;-64
2023/04/25 09:29:07;;;;;;;;;;;8.40;99.90;;;;;;5059823;28;19925;-64
2023/04/25 09:31:41;;;;;;;;;;;8.50;99.90;;;;;;5060212;28;19982;-64
2023/04/25 09:34:15;;;;;;;;;;;8.70;99.90;;;;;;5059556;28;19982;-64
2023/04/25 09:36:54;;;;;;;;;;;8.80;99.90;;;;;;5043356;28;19925;-64
2023/04/25 09:39:49;;;;;;;;;;;8.90;99.90;;;;;;5069713;28;20027;-64
2023/04/25 09:42:17;;;;;;;;;;;9.00;99.90;;;;;;5075948;28;19998;-64
2023/04/25 09:44:48;;;;;;;;;;;9.10;99.90;;;;;;5066569;28;20007;-64
2023/04/25 09:47:23;;;;;;;;;;;9.20;99.90;;;;;;5067501;28;19924;-64
2023/04/25 09:49:55;;;;;;;;;;;9.30;99.90;;;;;;5049560;28;20030;-64
2023/04/25 09:52:28;;;;;;;;;;;9.30;99.90;;;;;;5046286;28;19928;-64
2023/04/25 09:55:13;;;;;;;;;;;9.40;99.90;;;;;;5078860;28;20340;-64
2023/04/25 09:57:49;;;;;;;;;;;9.40;99.90;;;;;;5040256;28;19928;-64
2023/04/25 10:00:22;;;;;;;;;;;9.40;99.90;;;;;;5067699;28;20020;-64
2023/04/25 10:02:54;;;;;;;;;;;9.50;99.90;;;;;;5080870;28;19935;-64
2023/04/25 10:05:52;;;;;;;;;;;9.60;99.90;;;;;;5059475;28;19959;-64
2023/04/25 10:08:24;;;;;;;;;;;9.60;99.90;;;;;;5081256;28;19930;-64
2023/04/25 10:10:57;;;;;;;;;;;9.70;99.90;;;;;;5067918;28;19977;-63
2023/04/25 10:13:30;;;;;;;;;;;9.70;99.90;;;;;;5083406;28;19924;-64
2023/04/25 10:16:03;;;;;;;;;;;9.70;99.90;;;;;;5081850;28;19925;-63
2023/04/25 10:18:34;;;;;;;;;;;9.80;99.90;;;;;;5079460;28;19979;-63
2023/04/25 10:21:06;;;;;;;;;;;9.90;99.90;;;;;;5070983;28;19939;-64
2023/04/25 10:23:39;;;;;;;;;;;10.00;99.90;;;;;;5073628;28;20363;-64
2023/04/25 10:26:13;;;;;;;;;;;10.10;99.90;;;;;;5087453;28;19935;-63
2023/04/25 10:28:57;;;;;;;;;;;10.10;99.90;;;;;;5075626;28;19924;-64
2023/04/25 10:31:29;;;;;;;;;;;10.00;99.90;;;;;;5065970;28;19979;-65
2023/04/25 10:34:01;;;;;;;;;;;10.00;99.90;;;;;;5063989;28;20054;-63
2023/04/25 10:36:33;;;;;;;;;;;10.00;99.90;;;;;;5080465;28;19932;-63
2023/04/25 10:39:11;;;;;;;;;;;10.10;99.90;;;;;;5079619;28;19924;-63
2023/04/25 10:41:47;;;;;;;;;;;10.10;99.90;;;;;;5081310;28;19924;-63
2023/04/25 10:44:19;;;;;;;;;;;10.00;99.90;;;;;;5079641;28;19931;-64
2023/04/25 10:46:51;;;;;;;;;;;9.60;99.90;;;;;;5047991;28;19932;-63
2023/04/25 10:49:30;;;;;;;;;;;9.10;99.90;;;;;;5082336;28;20633;-63
2023/04/25 10:52:12;;;;;;;;;;;8.50;99.90;;;;;;5074615;28;19982;-63
2023/04/25 10:54:47;;;;;;;;;;;7.90;99.90;;;;;;5080731;28;20415;-63
2023/04/25 10:57:31;;;;;;;;;;;7.70;99.90;;;;;;5080707;28;19928;-64
2023/04/25 11:00:06;;;;;;;;;;;7.50;99.90;;;;;;5060814;28;19932;-63
2023/04/25 11:02:46;;;;;;;;;;;7.50;99.90;;;;;;5059109;28;19978;-64
2023/04/25 11:05:18;;;;;;;;;;;7.40;99.90;;;;;;5056708;28;20277;-64
2023/04/25 11:07:57;;;;;;;;;;;7.40;99.90;;;;;;5068716;28;19931;-64
2023/04/25 11:10:29;;;;;;;;;;;7.30;99.90;;;;;;5058119;28;19977;-64
2023/04/25 11:13:01;;;;;;;;;;;7.20;99.90;;;;;;5086673;28;19969;-64
2023/04/25 11:15:28;;;;;;;;;;;7.20;99.90;;;;;;5045632;28;19924;-65
2023/04/25 11:18:00;;;;;;;;;;;7.10;99.90;;;;;;5083268;28;19925;-63
2023/04/25 11:20:28;;;;;;;;;;;7.00;99.90;;;;;;5079158;28;19929;-64
2023/04/25 11:23:00;;;;;;;;;;;6.90;99.90;;;;;;5082515;28;19924;-63
2023/04/25 11:25:27;;;;;;;;;;;6.90;99.90;;;;;;5079942;28;20431;-63
2023/04/25 11:28:00;;;;;;;;;;;6.70;99.90;;;;;;5078390;28;19936;-64
2023/04/25 11:30:32;;;;;;;;;;;6.70;99.90;;;;;;5074032;28;19971;-63
2023/04/25 11:33:04;;;;;;;;;;;6.60;99.90;;;;;;5075013;28;20029;-63
2023/04/25 11:35:30;;;;;;;;;;;6.50;99.90;;;;;;5078645;28;19925;-64
2023/04/25 11:37:57;;;;;;;;;;;6.30;99.90;;;;;;5084510;28;19932;-63
2023/04/25 11:40:29;;;;;;;;;;;6.30;99.90;;;;;;5086208;28;19932;-63
2023/04/25 11:42:59;;;;;;;;;;;6.30;99.90;;;;;;5084651;28;20769;-63
2023/04/25 11:45:31;;;;;;;;;;;6.30;99.90;;;;;;5056562;28;19928;-64
2023/04/25 11:48:03;;;;;;;;;;;6.30;99.90;;;;;;5086326;28;19924;-63
2023/04/25 11:50:30;;;;;;;;;;;6.40;99.90;;;;;;5083032;28;20015;-64
2023/04/25 11:53:02;;;;;;;;;;;6.50;99.90;;;;;;5082764;28;19928;-63
2023/04/25 11:55:34;;;;;;;;;;;6.50;99.90;;;;;;5063437;28;19928;-63
2023/04/25 11:58:07;;;;;;;;;;;6.60;99.90;;;;;;5081296;28;19929;-63
2023/04/25 12:00:41;;;;;;;;;;;6.60;99.90;;;;;;5078930;28;19986;-64
2023/04/25 12:03:13;;;;;;;;;;;6.60;99.90;;;;;;5085070;28;20381;-63
2023/04/25 12:05:45;;;;;;;;;;;6.60;99.90;;;;;;5082275;28;19925;-63
2023/04/25 12:08:17;;;;;;;;;;;6.70;99.90;;;;;;5079795;28;19982;-63
2023/04/25 12:10:45;;;;;;;;;;;6.70;99.90;;;;;;5079968;28;19979;-63
2023/04/25 12:13:21;;;;;;;;;;;6.70;99.90;;;;;;5087235;28;19928;-64
2023/04/25 12:15:56;;;;;;;;;;;6.70;99.90;;;;;;5043312;28;20401;-63
2023/04/25 12:18:28;;;;;;;;;;;6.70;99.90;;;;;;5057426;28;19925;-63
2023/04/25 12:20:55;;;;;;;;;;;6.70;99.90;;;;;;5084403;28;19925;-63
2023/04/25 12:23:28;;;;;;;;;;;6.70;99.90;;;;;;5086469;28;20355;-63
2023/04/25 12:26:02;;;;;;;;;;;6.70;99.90;;;;;;5081356;28;20277;-63
2023/04/25 12:28:34;;;;;;;;;;;6.60;99.90;;;;;;5080441;28;19929;-64
2023/04/25 12:31:03;;;;;;;;;;;6.60;99.90;;;;;;5077318;28;19928;-63
2023/04/25 12:33:30;;;;;;;;;;;6.60;99.90;;;;;;5078501;28;20304;-64
2023/04/25 12:35:58;;;;;;;;;;;6.60;99.90;;;;;;5064892;28;19930;-63
2023/04/25 12:38:31;;;;;;;;;;;6.60;99.90;;;;;;5078756;28;19935;-63
2023/04/25 12:41:03;;;;;;;;;;;6.70;99.90;;;;;;5079346;28;20028;-64
2023/04/25 12:43:34;;;;;;;;;;;6.70;99.90;;;;;;5069615;28;20436;-64
2023/04/25 12:46:06;;;;;;;;;;;6.90;99.90;;;;;;5071654;28;20336;-64
2023/04/25 12:48:38;;;;;;;;;;;6.90;99.90;;;;;;5082429;28;19924;-64
2023/04/25 12:51:10;;;;;;;;;;;7.00;99.90;;;;;;5084012;28;19967;-64
2023/04/25 12:53:38;;;;;;;;;;;7.00;99.90;;;;;;5086309;28;20487;-64
2023/04/25 12:56:06;;;;;;;;;;;7.00;99.90;;;;;;5058043;28;20456;-64
2023/04/25 12:58:33;;;;;;;;;;;7.00;99.90;;;;;;5074834;28;19935;-64
2023/04/25 13:01:05;;;;;;;;;;;7.10;99.90;;;;;;5076507;28;20416;-65
2023/04/25 13:03:36;;;;;;;;;;;7.00;99.90;;;;;;5068975;28;19932;-64
2023/04/25 13:06:09;;;;;;;;;;;7.00;99.90;;;;;;5070279;28;20414;-64
2023/04/25 13:08:41;;;;;;;;;;;6.90;99.90;;;;;;5085040;28;19938;-64
2023/04/25 13:11:08;;;;;;;;;;;7.00;99.90;;;;;;5078368;28;19940;-64
2023/04/25 13:13:40;;;;;;;;;;;7.10;99.90;;;;;;5077825;28;20407;-63
2023/04/25 13:16:13;;;;;;;;;;;7.20;99.90;;;;;;5065522;28;19928;-63
2023/04/25 13:18:46;;;;;;;;;;;7.20;99.90;;;;;;5074442;28;19924;-64
2023/04/25 13:21:13;;;;;;;;;;;7.30;99.90;;;;;;5076821;28;19970;-64
2023/04/25 13:23:40;;;;;;;;;;;7.30;99.90;;;;;;5084833;28;19924;-64
2023/04/25 13:26:12;;;;;;;;;;;7.30;99.90;;;;;;5056687;28;19932;-64
2023/04/25 13:28:43;;;;;;;;;;;7.40;99.90;;;;;;5053923;28;20458;-64
2023/04/25 13:31:10;;;;;;;;;;;7.40;99.90;;;;;;5061925;28;19955;-64
2023/04/25 13:33:43;;;;;;;;;;;7.40;99.90;;;;;;5084049;28;19939;-64
2023/04/25 13:36:15;;;;;;;;;;;7.40;99.90;;;;;;5075706;28;19982;-64
2023/04/25 13:38:43;;;;;;;;;;;7.50;99.90;;;;;;5082659;28;19928;-64
2023/04/25 13:41:18;;;;;;;;;;;7.60;99.90;;;;;;5080230;28;19947;-64
2023/04/25 13:43:50;;;;;;;;;;;7.50;99.90;;;;;;5085300;28;19935;-66
2023/04/25 13:46:21;;;;;;;;;;;7.60;99.90;;;;;;5078598;28;19932;-63
2023/04/25 13:48:53;;;;;;;;;;;7.50;99.90;;;;;;5045788;28;19931;-64
2023/04/25 13:51:26;;;;;;;;;;;7.50;99.90;;;;;;5081825;28;19924;-64
2023/04/25 13:53:57;;;;;;;;;;;7.50;99.90;;;;;;5067871;28;19928;-64
2023/04/25 13:56:30;;;;;;;;;;;7.50;99.90;;;;;;5068676;28;19931;-64
2023/04/25 13:58:57;;;;;;;;;;;7.50;99.90;;;;;;5081712;28;19986;-64
2023/04/25 14:01:23;;;;;;;;;;;7.50;99.90;;;;;;5065389;28;19929;-64
2023/04/25 14:03:55;;;;;;;;;;;7.40;99.90;;;;;;5060027;28;19931;-64
2023/04/25 14:06:27;;;;;;;;;;;7.40;99.90;;;;;;5060741;28;19931;-64
2023/04/25 14:09:00;;;;;;;;;;;7.20;99.90;;;;;;5035825;28;20396;-64
2023/04/25 14:11:32;;;;;;;;;;;7.30;99.90;;;;;;5059712;28;19982;-64
2023/04/25 14:14:04;;;;;;;;;;;7.40;99.90;;;;;;5058329;28;19925;-64
2023/04/25 14:16:35;;;;;;;;;;;7.50;99.90;;;;;;5061484;28;20027;-64
2023/04/25 14:19:07;;;;;;;;;;;7.50;99.90;;;;;;5070250;28;20062;-64
2023/04/25 14:21:39;;;;;;;;;;;7.60;99.90;;;;;;5068143;28;20378;-64
2023/04/25 14:24:11;;;;;;;;;;;7.60;99.90;;;;;;5061635;28;19932;-64
2023/04/25 14:26:43;;;;;;;;;;;7.80;99.90;;;;;;5075446;28;20427;-64
2023/04/25 14:29:15;;;;;;;;;;;7.70;99.90;;;;;;5074459;28;19924;-64
2023/04/25 14:31:46;;;;;;;;;;;7.80;99.90;;;;;;5078191;28;20012;-64
2023/04/25 14:34:13;;;;;;;;;;;7.90;99.90;;;;;;5085488;28;19948;-64
2023/04/25 14:36:45;;;;;;;;;;;8.00;99.90;;;;;;5056101;28;19925;-64
2023/04/25 14:39:12;;;;;;;;;;;8.10;99.90;;;;;;5081626;28;19925;-65
2023/04/25 14:41:44;;;;;;;;;;;8.20;99.90;;;;;;5077658;28;20424;-64
2023/04/25 14:44:11;;;;;;;;;;;8.40;99.90;;;;;;5081777;28;19978;-64
2023/04/25 14:46:43;;;;;;;;;;;8.40;99.90;;;;;;5061551;28;19924;-64
2023/04/25 14:49:09;;;;;;;;;;;8.30;99.90;;;;;;5083395;28;19938;-64
2023/04/25 14:51:41;;;;;;;;;;;8.30;99.90;;;;;;5061350;28;19925;-64
2023/04/25 14:54:13;;;;;;;;;;;8.20;99.90;;;;;;5064270;28;20356;-64
2023/04/25 14:56:44;;;;;;;;;;;8.20;99.90;;;;;;5085786;28;20401;-64
2023/04/25 14:59:16;;;;;;;;;;;8.40;99.90;;;;;;5069300;28;19973;-64
2023/04/25 15:01:48;;;;;;;;;;;8.70;99.90;;;;;;5078201;28;19928;-63
2023/04/25 15:04:20;;;;;;;;;;;8.80;99.90;;;;;;5081991;28;19932;-64
2023/04/25 15:06:47;;;;;;;;;;;8.90;99.90;;;;;;5065545;28;19928;-63